Time;durP1;ratioP1;P1;durP2;ratioP2;P2;SDS_P1;SDS_P2;PMS_P1;PMS_P2;Temp;Humidity;BMP_temperature;BMP_pressure;BME280_temperature;BME280_humidity;BME280_pressure;Samples;Min_cycle;Max_cycle;Signal;HPM_P1;HPM_P2
2023/12/21 00:00:15;;;;;;;19.10;6.60;;;;;;;3.93;73.32;98169.58;105363;1254;96616;-72
2023/12/21 00:03:03;;;;;;;19.60;8.00;;;;;;;3.92;73.16;98165.80;105548;1254;113419;-71
2023/12/21 00:05:31;;;;;;;18.50;6.20;;;;;;;3.92;73.32;98169.31;105516;1256;97134;-73
2023/12/21 00:07:58;;;;;;;14.20;5.70;;;;;;;3.91;73.32;98167.40;105146;1253;107442;-71
2023/12/21 00:10:26;;;;;;;16.50;5.40;;;;;;;3.92;73.28;98166.50;105442;1255;96621;-71
2023/12/21 00:12:54;;;;;;;12.40;5.20;;;;;;;3.93;73.33;98166.28;105517;1256;96680;-72
2023/12/21 00:15:22;;;;;;;14.60;5.50;;;;;;;3.92;73.23;98163.15;105230;1260;109553;-73
2023/12/21 00:17:50;;;;;;;15.10;5.20;;;;;;;3.92;73.25;98158.23;105643;1254;96587;-71
2023/12/21 00:20:20;;;;;;;15.30;5.30;;;;;;;3.92;73.29;98158.95;105866;1256;107698;-72
2023/12/21 00:22:48;;;;;;;13.60;5.00;;;;;;;3.92;73.41;98153.35;105526;1256;97489;-72
2023/12/21 00:25:16;;;;;;;15.20;5.50;;;;;;;3.92;73.33;98153.49;105652;1253;96667;-72
2023/12/21 00:27:44;;;;;;;12.00;4.50;;;;;;;3.92;73.19;98148.75;105305;1257;109646;-72
2023/12/21 00:30:13;;;;;;;15.10;5.10;;;;;;;3.93;73.23;98143.97;105582;1253;96600;-72
2023/12/21 00:32:41;;;;;;;14.70;4.60;;;;;;;3.95;73.30;98148.97;105586;1256;107301;-71
2023/12/21 00:35:09;;;;;;;11.70;5.00;;;;;;;3.96;73.22;98148.71;105531;1256;96647;-72
2023/12/21 00:37:37;;;;;;;14.00;5.50;;;;;;;3.96;73.08;98146.76;105273;1254;97133;-72
2023/12/21 00:40:06;;;;;;;13.80;5.00;;;;;;;3.99;73.24;98153.64;105491;1254;109338;-71
2023/12/21 00:42:36;;;;;;;18.20;6.20;;;;;;;4.01;73.10;98158.95;105446;1256;97859;-73
2023/12/21 00:45:05;;;;;;;15.10;5.30;;;;;;;4.02;72.90;98154.49;105162;1256;108236;-71
2023/12/21 00:47:33;;;;;;;15.20;5.50;;;;;;;4.02;73.02;98154.66;105647;1254;97530;-72
2023/12/21 00:50:01;;;;;;;15.10;5.10;;;;;;;4.01;73.02;98155.27;105522;1254;96567;-73
2023/12/21 00:52:29;;;;;;;15.50;5.20;;;;;;;4.00;73.12;98152.66;105462;1256;110359;-72
2023/12/21 00:54:57;;;;;;;16.00;5.30;;;;;;;4.00;72.91;98146.52;105451;1254;96758;-73
2023/12/21 00:57:25;;;;;;;16.50;5.50;;;;;;;4.00;73.16;98143.36;105519;1254;107102;-73
2023/12/21 00:59:53;;;;;;;16.60;5.50;;;;;;;3.98;72.95;98137.88;105162;1259;98006;-71
2023/12/21 01:02:20;;;;;;;15.40;5.20;;;;;;;3.97;72.80;98129.16;105654;1255;96610;-71
2023/12/21 01:04:48;;;;;;;14.60;4.80;;;;;;;3.95;72.92;98128.76;105252;1256;109958;-71
2023/12/21 01:07:16;;;;;;;19.70;5.70;;;;;;;3.94;72.91;98122.49;105211;1270;96609;-73
2023/12/21 01:09:44;;;;;;;14.70;5.20;;;;;;;3.94;72.71;98113.39;105361;1256;107247;-74
2023/12/21 01:12:12;;;;;;;16.00;5.50;;;;;;;3.93;72.86;98107.14;105217;1254;96613;-73
2023/12/21 01:14:41;;;;;;;16.60;5.60;;;;;;;3.94;72.77;98108.64;105604;1256;96584;-74
2023/12/21 01:17:08;;;;;;;18.60;6.40;;;;;;;3.94;72.79;98108.31;105527;1254;108930;-72
2023/12/21 01:19:36;;;;;;;15.60;6.30;;;;;;;3.95;72.72;98105.98;105701;1257;96643;-73
2023/12/21 01:22:04;;;;;;;16.30;5.70;;;;;;;3.96;72.81;98102.41;105566;1257;107573;-72
2023/12/21 01:24:32;;;;;;;15.40;5.10;;;;;;;3.97;72.73;98101.66;105734;1256;96597;-72
2023/12/21 01:27:00;;;;;;;14.90;4.80;;;;;;;3.97;72.93;98100.42;105800;1256;96603;-71
2023/12/21 01:29:28;;;;;;;12.40;5.00;;;;;;;3.97;72.75;98101.66;105588;1256;110553;-71
2023/12/21 01:31:57;;;;;;;14.90;5.00;;;;;;;3.97;72.72;98100.56;105285;1259;97454;-72
2023/12/21 01:34:25;;;;;;;13.70;4.80;;;;;;;3.97;72.64;98094.79;105489;1256;107616;-72
2023/12/21 01:36:53;;;;;;;14.50;4.60;;;;;;;3.97;72.63;98090.40;105646;1256;97186;-72
2023/12/21 01:39:21;;;;;;;15.70;5.20;;;;;;;3.98;72.73;98084.23;105270;1257;96667;-72
2023/12/21 01:41:49;;;;;;;13.40;4.60;;;;;;;3.99;72.67;98079.25;105436;1254;108967;-72
2023/12/21 01:44:17;;;;;;;13.60;4.60;;;;;;;3.99;72.75;98076.59;105494;1269;96708;-72
2023/12/21 01:46:45;;;;;;;13.50;4.70;;;;;;;3.99;72.74;98078.17;105171;1267;105762;-73
2023/12/21 01:49:13;;;;;;;11.90;4.50;;;;;;;4.00;72.63;98073.37;105397;1256;96659;-72
2023/12/21 01:51:42;;;;;;;12.50;5.30;;;;;;;4.00;72.62;98073.70;105654;1256;97929;-72
2023/12/21 01:54:10;;;;;;;12.90;4.40;;;;;;;4.00;72.48;98070.92;105468;1256;109261;-71
2023/12/21 01:56:38;;;;;;;15.80;4.70;;;;;;;4.00;72.62;98068.98;105570;1258;96605;-72
2023/12/21 01:59:06;;;;;;;13.80;5.20;;;;;;;4.00;72.53;98068.29;105366;1256;108272;-72
2023/12/21 02:01:35;;;;;;;14.90;6.00;;;;;;;4.01;72.62;98066.48;105592;1257;96642;-72
2023/12/21 02:04:03;;;;;;;12.80;4.90;;;;;;;4.02;72.67;98065.02;105573;1256;96619;-74
2023/12/21 02:06:32;;;;;;;14.80;4.80;;;;;;;4.03;72.66;98066.02;105691;1256;110081;-72
2023/12/21 02:09:00;;;;;;;11.80;4.70;;;;;;;4.03;72.57;98062.83;105710;1257;97566;-73
2023/12/21 02:11:28;;;;;;;12.50;4.70;;;;;;;4.05;72.53;98065.92;105350;1267;107403;-73
2023/12/21 02:13:55;;;;;;;17.40;5.10;;;;;;;4.06;72.60;98061.95;105381;1260;96667;-72
2023/12/21 02:16:27;;;;;;;12.30;4.70;;;;;;;4.08;72.51;98062.21;105418;1254;96550;-73
2023/12/21 02:18:56;;;;;;;11.20;4.90;;;;;;;4.09;72.66;98059.88;105632;1254;109867;-72
2023/12/21 02:21:25;;;;;;;11.30;4.20;;;;;;;4.09;72.63;98057.90;105385;1257;96694;-74
2023/12/21 02:23:55;;;;;;;11.00;4.20;;;;;;;4.11;72.63;98056.91;105410;1254;108140;-73
2023/12/21 02:26:23;;;;;;;10.70;3.80;;;;;;;4.12;72.63;98059.63;105484;1254;97585;-72
2023/12/21 02:28:51;;;;;;;10.20;4.00;;;;;;;4.14;72.55;98060.44;105606;1256;98064;-72
2023/12/21 02:31:18;;;;;;;10.20;3.90;;;;;;;4.14;72.55;98057.96;105707;1256;109994;-74
2023/12/21 02:33:46;;;;;;;11.10;3.60;;;;;;;4.15;72.41;98056.85;105504;1257;96545;-72
2023/12/21 02:36:14;;;;;;;12.30;4.40;;;;;;;4.15;72.57;98051.58;105297;1254;107588;-72
2023/12/21 02:38:42;;;;;;;12.60;4.30;;;;;;;4.16;72.41;98052.91;105251;1257;96613;-72
2023/12/21 02:41:10;;;;;;;13.00;4.50;;;;;;;4.18;72.36;98052.65;105303;1257;96597;-72
2023/12/21 02:43:37;;;;;;;10.10;3.80;;;;;;;4.19;72.38;98052.56;105582;1268;109822;-71
2023/12/21 02:46:06;;;;;;;11.30;4.00;;;;;;;4.21;72.48;98047.74;105672;1254;96521;-73
2023/12/21 02:48:33;;;;;;;9.50;3.90;;;;;;;4.22;72.36;98046.75;105504;1256;107218;-72
2023/12/21 02:51:01;;;;;;;12.50;4.10;;;;;;;4.24;72.49;98043.67;105704;1255;96577;-73
2023/12/21 02:53:29;;;;;;;11.80;4.20;;;;;;;4.25;72.33;98046.58;105630;1257;96514;-74
2023/12/21 02:55:57;;;;;;;8.80;3.70;;;;;;;4.26;72.64;98040.89;106879;1255;109544;-71
2023/12/21 02:58:25;;;;;;;10.30;3.50;;;;;;;4.28;72.34;98028.88;105544;1255;96603;-74
2023/12/21 03:00:52;;;;;;;10.70;3.70;;;;;;;4.29;72.48;98026.12;105713;1257;108183;-71
2023/12/21 03:03:20;;;;;;;9.50;4.00;;;;;;;4.30;72.21;98019.72;105420;1256;96599;-73
2023/12/21 03:05:48;;;;;;;11.60;3.80;;;;;;;4.29;72.18;98016.09;105219;1256;96661;-71
2023/12/21 03:08:16;;;;;;;11.30;3.90;;;;;;;4.28;72.21;98009.86;105402;1254;110590;-71
2023/12/21 03:10:44;;;;;;;8.50;3.60;;;;;;;4.28;72.13;98004.42;105517;1254;96619;-71
2023/12/21 03:13:12;;;;;;;8.40;3.60;;;;;;;4.28;72.13;97998.80;105537;1265;107581;-75
2023/12/21 03:15:40;;;;;;;9.40;3.60;;;;;;;4.29;72.20;97995.98;105620;1257;96618;-71
2023/12/21 03:18:07;;;;;;;6.80;3.10;;;;;;;4.28;72.39;97995.88;105255;1256;96593;-71
2023/12/21 03:20:35;;;;;;;10.00;3.70;;;;;;;4.27;72.39;97994.50;105600;1256;110017;-73
2023/12/21 03:23:03;;;;;;;10.10;3.90;;;;;;;4.28;72.17;97994.09;105604;1267;97553;-72
2023/12/21 03:25:31;;;;;;;7.10;3.50;;;;;;;4.28;72.29;97990.05;105440;1258;108325;-72
2023/12/21 03:27:59;;;;;;;10.70;4.00;;;;;;;4.28;72.32;97991.61;105333;1259;96690;-73
2023/12/21 03:30:28;;;;;;;11.50;4.00;;;;;;;4.26;72.02;97987.89;105525;1255;96659;-72
2023/12/21 03:32:56;;;;;;;10.80;4.10;;;;;;;4.23;72.04;97983.55;105531;1256;109964;-71
2023/12/21 03:35:25;;;;;;;11.10;4.10;;;;;;;4.20;72.08;97980.95;105337;1267;96603;-71
2023/12/21 03:37:53;;;;;;;12.00;4.40;;;;;;;4.17;71.96;97976.87;105187;1257;106529;-73
2023/12/21 03:40:21;;;;;;;10.30;3.50;;;;;;;4.14;71.93;97975.69;105547;1253;96722;-72
2023/12/21 03:42:52;;;;;;;11.60;4.40;;;;;;;4.10;71.97;97978.52;105568;1256;96603;-72
2023/12/21 03:45:20;;;;;;;10.70;4.40;;;;;;;4.07;71.59;97977.54;105554;1256;110085;-72
2023/12/21 03:47:49;;;;;;;13.30;4.50;;;;;;;4.04;71.76;97973.15;105739;1256;96728;-71
2023/12/21 03:50:17;;;;;;;13.10;4.70;;;;;;;4.01;71.75;97972.42;105339;1257;107673;-71
2023/12/21 03:52:44;;;;;;;11.90;4.70;;;;;;;3.98;71.81;97962.63;105374;1254;96635;-72
2023/12/21 03:55:13;;;;;;;11.60;4.30;;;;;;;3.96;71.64;97961.17;105503;1257;96702;-73
2023/12/21 03:57:41;;;;;;;13.10;4.50;;;;;;;3.93;71.66;97959.26;105287;1256;109452;-72
2023/12/21 04:00:09;;;;;;;14.60;5.50;;;;;;;3.92;71.69;97959.02;105418;1266;97965;-73
2023/12/21 04:02:37;;;;;;;14.00;5.50;;;;;;;3.93;71.78;97954.73;105770;1256;107497;-72
2023/12/21 04:05:05;;;;;;;11.00;4.30;;;;;;;3.86;71.42;97944.26;105379;1256;96615;-72
2023/12/21 04:07:33;;;;;;;11.70;4.60;;;;;;;3.79;71.39;97934.88;105680;1256;96635;-74
2023/12/21 04:10:01;;;;;;;14.80;5.00;;;;;;;3.73;71.46;97932.46;105435;1254;109884;-71
2023/12/21 04:12:29;;;;;;;13.30;5.10;;;;;;;3.69;71.57;97929.89;105307;1257;96608;-74
2023/12/21 04:14:57;;;;;;;11.30;4.70;;;;;;;3.66;71.55;97921.66;105442;1254;107612;-73
2023/12/21 04:17:25;;;;;;;13.20;4.70;;;;;;;3.61;71.68;97923.73;105447;1263;96622;-72
2023/12/21 04:19:53;;;;;;;16.20;6.30;;;;;;;3.57;71.37;97922.75;105299;1256;97101;-74
2023/12/21 04:22:21;;;;;;;17.70;6.00;;;;;;;3.51;71.53;97922.80;105473;1254;110071;-73
2023/12/21 04:24:49;;;;;;;14.40;5.70;;;;;;;3.44;71.39;97922.85;105526;1255;96612;-72
2023/12/21 04:27:17;;;;;;;16.20;5.40;;;;;;;3.41;71.42;97918.85;105422;1265;107414;-72
2023/12/21 04:29:44;;;;;;;15.50;5.00;;;;;;;3.40;71.58;97913.65;105257;1265;96616;-71
2023/12/21 04:32:12;;;;;;;13.50;5.10;;;;;;;3.39;71.80;97908.30;105219;1256;97633;-72
2023/12/21 04:34:40;;;;;;;12.90;5.40;;;;;;;3.36;71.55;97899.66;105627;1254;110230;-73
2023/12/21 04:37:08;;;;;;;15.70;6.50;;;;;;;3.33;71.48;97899.35;105478;1257;97544;-72
2023/12/21 04:39:36;;;;;;;16.10;6.50;;;;;;;3.34;71.82;97891.96;105167;1266;107600;-71
2023/12/21 04:42:04;;;;;;;15.50;6.10;;;;;;;3.32;71.71;97885.91;105511;1257;96753;-71
2023/12/21 04:44:34;;;;;;;19.40;6.70;;;;;;;3.29;71.61;97879.64;105587;1256;96594;-71
2023/12/21 04:47:02;;;;;;;18.70;6.50;;;;;;;3.24;71.59;97871.49;105572;1256;110570;-71
2023/12/21 04:49:30;;;;;;;17.80;6.40;;;;;;;3.20;71.58;97867.91;105323;1260;96601;-72
2023/12/21 04:51:58;;;;;;;15.90;5.30;;;;;;;3.18;71.67;97868.59;108059;1256;107726;-73
2023/12/21 04:54:26;;;;;;;14.30;5.80;;;;;;;3.16;71.36;97871.68;105505;1257;96594;-72
2023/12/21 04:56:53;;;;;;;14.70;5.90;;;;;;;3.14;71.62;97865.47;105596;1257;96617;-72
2023/12/21 04:59:21;;;;;;;15.10;6.20;;;;;;;3.16;71.79;97862.35;105824;1256;110104;-72
2023/12/21 05:01:50;;;;;;;18.50;7.10;;;;;;;3.15;71.77;97857.51;105587;1256;96682;-72
2023/12/21 05:04:18;;;;;;;17.80;6.90;;;;;;;3.13;71.52;97855.68;105532;1264;107654;-71
2023/12/21 05:06:46;;;;;;;18.20;6.90;;;;;;;3.12;71.59;97850.53;105537;1256;96619;-70
2023/12/21 05:09:13;;;;;;;16.90;6.50;;;;;;;3.10;71.64;97845.18;105836;1257;96663;-72
2023/12/21 05:11:41;;;;;;;18.40;7.20;;;;;;;3.08;71.50;97841.50;105530;1256;109943;-70
2023/12/21 05:14:09;;;;;;;15.50;5.80;;;;;;;3.05;71.60;97837.44;105463;1257;96603;-70
2023/12/21 05:16:40;;;;;;;17.70;6.50;;;;;;;3.05;71.47;97828.55;105703;1256;107773;-71
2023/12/21 05:19:08;;;;;;;16.40;5.70;;;;;;;3.03;71.32;97829.04;105571;1257;96615;-72
2023/12/21 05:21:36;;;;;;;18.60;6.80;;;;;;;3.00;71.53;97821.35;105708;1253;96750;-72
2023/12/21 05:24:04;;;;;;;18.30;6.70;;;;;;;2.96;71.15;97815.78;105663;1256;110010;-72
2023/12/21 05:26:32;;;;;;;14.90;6.10;;;;;;;2.93;71.37;97813.31;105531;1256;96613;-71
2023/12/21 05:29:02;;;;;;;18.30;6.80;;;;;;;2.87;71.18;97812.98;105393;1256;107084;-69
2023/12/21 05:31:29;;;;;;;17.20;6.60;;;;;;;2.82;71.33;97812.77;105669;1264;97504;-73
2023/12/21 05:33:58;;;;;;;20.50;7.80;;;;;;;2.76;71.10;97813.48;105519;1256;96600;-74
2023/12/21 05:36:26;;;;;;;18.50;7.50;;;;;;;2.70;71.28;97813.67;105684;1256;109664;-72
2023/12/21 05:38:54;;;;;;;18.80;7.90;;;;;;;2.65;71.31;97818.14;105494;1264;96597;-72
2023/12/21 05:41:22;;;;;;;19.50;7.90;;;;;;;2.63;71.20;97812.72;105288;1268;107600;-72
2023/12/21 05:43:49;;;;;;;18.30;7.60;;;;;;;2.58;71.08;97811.98;105550;1264;96597;-72
2023/12/21 05:46:17;;;;;;;20.00;8.00;;;;;;;2.53;71.04;97808.02;105591;1256;96577;-71
2023/12/21 05:48:45;;;;;;;23.60;8.60;;;;;;;2.47;71.35;97806.42;105731;1257;109494;-72
2023/12/21 05:51:13;;;;;;;22.20;9.00;;;;;;;2.42;70.76;97805.89;105488;1254;97224;-72
2023/12/21 05:53:41;;;;;;;21.50;8.40;;;;;;;2.36;70.94;97794.02;105465;1264;107622;-73
2023/12/21 05:56:09;;;;;;;21.40;8.70;;;;;;;2.29;71.44;97787.60;105672;1256;96606;-75
2023/12/21 05:58:37;;;;;;;20.50;8.50;;;;;;;2.23;70.69;97776.56;106693;1257;96664;-70
2023/12/21 06:01:05;;;;;;;21.60;8.80;;;;;;;2.20;71.24;97768.16;107464;1256;109846;-70
2023/12/21 06:03:33;;;;;;;21.50;8.50;;;;;;;2.12;71.20;97769.13;108625;1254;95714;-72
2023/12/21 06:06:01;;;;;;;22.30;9.10;;;;;;;2.07;71.17;97766.79;108282;1257;107594;-71
2023/12/21 06:08:29;;;;;;;39.30;17.80;;;;;;;2.02;71.10;97764.14;105647;1254;96571;-73
2023/12/21 06:10:57;;;;;;;39.10;18.90;;;;;;;1.93;70.91;97764.48;105891;1259;96574;-70
2023/12/21 06:13:24;;;;;;;31.70;15.50;;;;;;;1.85;70.92;97766.02;105840;1256;107969;-71
2023/12/21 06:15:52;;;;;;;27.60;13.20;;;;;;;1.73;70.92;97770.54;105641;1256;96599;-71
2023/12/21 06:18:20;;;;;;;21.90;9.60;;;;;;;1.63;71.14;97764.96;105601;1254;107656;-74
2023/12/21 06:20:48;;;;;;;22.50;9.60;;;;;;;1.56;71.03;97759.45;105679;1254;97416;-73
2023/12/21 06:23:16;;;;;;;21.40;9.90;;;;;;;1.57;71.20;97758.01;105489;1257;96614;-72
2023/12/21 06:25:44;;;;;;;21.40;9.30;;;;;;;1.57;71.22;97757.80;105667;1256;110010;-75
2023/12/21 06:28:12;;;;;;;22.10;9.80;;;;;;;1.53;71.39;97755.06;105665;1265;96680;-72
2023/12/21 06:30:40;;;;;;;21.30;9.60;;;;;;;1.44;71.23;97753.13;105443;1257;107345;-72
2023/12/21 06:33:08;;;;;;;21.80;9.10;;;;;;;1.36;71.12;97753.04;105691;1254;96619;-76
2023/12/21 06:35:36;;;;;;;24.00;10.90;;;;;;;1.31;71.36;97748.91;105531;1257;97827;-72
2023/12/21 06:38:04;;;;;;;23.70;9.70;;;;;;;1.26;71.54;97751.17;105498;1258;108826;-75
2023/12/21 06:40:32;;;;;;;22.50;9.10;;;;;;;1.22;71.39;97752.45;105450;1256;96677;-73
2023/12/21 06:43:00;;;;;;;22.10;9.80;;;;;;;1.17;71.54;97748.31;105517;1257;107620;-73
2023/12/21 06:45:28;;;;;;;24.10;10.00;;;;;;;1.11;71.64;97744.65;105467;1257;97939;-71
2023/12/21 06:47:58;;;;;;;22.50;10.20;;;;;;;1.03;71.45;97744.37;105589;1256;96701;-73
2023/12/21 06:50:26;;;;;;;24.30;10.90;;;;;;;1.00;71.57;97743.50;105740;1255;109841;-73
2023/12/21 06:52:57;;;;;;;24.30;10.30;;;;;;;0.97;71.40;97741.91;105664;1256;97553;-73
2023/12/21 06:55:25;;;;;;;23.30;10.30;;;;;;;0.93;71.61;97739.00;105478;1264;107721;-71
2023/12/21 06:57:53;;;;;;;21.90;8.90;;;;;;;0.88;71.72;97742.02;105512;1257;96618;-72
2023/12/21 07:00:21;;;;;;;25.80;10.60;;;;;;;0.88;71.53;97740.09;105681;1254;96580;-73
2023/12/21 07:02:50;;;;;;;25.00;10.90;;;;;;;0.86;71.74;97740.91;105884;1256;109587;-74
2023/12/21 07:05:19;;;;;;;22.50;9.20;;;;;;;0.81;71.66;97739.98;105888;1265;97974;-73
2023/12/21 07:07:47;;;;;;;23.20;10.20;;;;;;;0.80;72.04;97738.98;105496;1257;107166;-73
2023/12/21 07:10:15;;;;;;;23.60;10.30;;;;;;;0.78;71.95;97730.39;105265;1264;97818;-74
2023/12/21 07:12:43;;;;;;;24.00;10.20;;;;;;;0.79;71.90;97727.02;105337;1256;96616;-71
2023/12/21 07:15:11;;;;;;;21.90;10.10;;;;;;;0.78;71.63;97718.33;105524;1266;110054;-72
2023/12/21 07:17:39;;;;;;;20.00;8.70;;;;;;;0.79;71.64;97713.79;105408;1258;97928;-73
2023/12/21 07:20:09;;;;;;;20.10;8.30;;;;;;;0.82;71.64;97710.08;105497;1265;106363;-73
2023/12/21 07:22:37;;;;;;;21.60;9.50;;;;;;;0.86;71.77;97707.25;105562;1256;97868;-72
2023/12/21 07:25:05;;;;;;;21.40;8.60;;;;;;;0.84;71.78;97697.55;105804;1254;96597;-73
2023/12/21 07:27:32;;;;;;;21.40;9.20;;;;;;;0.85;71.79;97696.16;105584;1254;109872;-72
2023/12/21 07:30:00;;;;;;;21.90;10.10;;;;;;;0.88;71.89;97689.01;105979;1256;97452;-73
2023/12/21 07:32:29;;;;;;;24.10;9.80;;;;;;;0.92;71.79;97683.17;105902;1256;108569;-75
2023/12/21 07:34:57;;;;;;;22.00;9.60;;;;;;;0.93;72.13;97686.11;105612;1258;96536;-73
2023/12/21 07:37:25;;;;;;;22.20;9.50;;;;;;;0.93;72.32;97682.77;105596;1254;96671;-72
2023/12/21 07:39:53;;;;;;;21.80;9.60;;;;;;;0.94;72.37;97677.86;105312;1257;110291;-72
2023/12/21 07:42:21;;;;;;;22.10;10.10;;;;;;;0.93;72.35;97684.37;105295;1264;97114;-73
2023/12/21 07:44:49;;;;;;;22.40;9.60;;;;;;;0.93;72.26;97682.12;105479;1256;107581;-72
2023/12/21 07:47:16;;;;;;;23.10;9.10;;;;;;;0.94;72.45;97676.59;105356;1257;96695;-71
2023/12/21 07:49:44;;;;;;;22.70;10.00;;;;;;;0.94;72.41;97678.38;105247;1251;96605;-74
2023/12/21 07:52:12;;;;;;;22.00;9.00;;;;;;;0.95;72.28;97678.33;105387;1256;109982;-72
2023/12/21 07:54:40;;;;;;;24.80;9.40;;;;;;;0.94;71.99;97676.82;105565;1257;96630;-73
2023/12/21 07:57:10;;;;;;;21.20;8.90;;;;;;;0.94;72.20;97677.15;105396;1257;107226;-72
2023/12/21 07:59:38;;;;;;;21.20;9.10;;;;;;;0.93;72.37;97679.48;105516;1257;96606;-71
2023/12/21 08:02:06;;;;;;;22.30;9.20;;;;;;;0.93;72.45;97680.52;105606;1257;97824;-71
2023/12/21 08:04:34;;;;;;;20.40;9.60;;;;;;;0.95;72.57;97681.27;105490;1253;110021;-73
2023/12/21 08:07:02;;;;;;;20.70;9.00;;;;;;;1.01;72.25;97680.43;105690;1254;96545;-72
2023/12/21 08:09:30;;;;;;;22.60;8.80;;;;;;;1.09;72.47;97687.48;105699;1253;108276;-74
2023/12/21 08:11:58;;;;;;;19.60;8.50;;;;;;;1.15;72.49;97675.26;105463;1254;96721;-71
2023/12/21 08:14:28;;;;;;;19.50;8.20;;;;;;;1.18;72.52;97670.56;105582;1256;97515;-73
2023/12/21 08:16:59;;;;;;;19.00;7.80;;;;;;;1.25;72.47;97662.02;105665;1256;109559;-71
2023/12/21 08:19:27;;;;;;;18.90;7.60;;;;;;;1.27;72.31;97669.38;105443;1254;96627;-73
2023/12/21 08:21:55;;;;;;;18.80;7.40;;;;;;;1.29;72.24;97668.38;105413;1256;105697;-74
2023/12/21 08:24:23;;;;;;;17.90;7.10;;;;;;;1.31;72.25;97669.81;105433;1257;97467;-73
2023/12/21 08:26:50;;;;;;;21.00;8.30;;;;;;;1.32;72.34;97665.61;105692;1254;96520;-71
2023/12/21 08:29:18;;;;;;;19.10;7.90;;;;;;;1.30;72.07;97659.58;105678;1256;109634;-72
2023/12/21 08:31:46;;;;;;;20.90;8.40;;;;;;;1.30;72.32;97648.05;105485;1256;96597;-73
2023/12/21 08:34:14;;;;;;;20.30;8.30;;;;;;;1.32;72.07;97643.57;105257;1257;108290;-73
2023/12/21 08:36:42;;;;;;;20.60;8.70;;;;;;;1.36;72.20;97638.63;105476;1256;96591;-72
2023/12/21 08:39:10;;;;;;;19.00;7.80;;;;;;;1.38;72.15;97648.98;105349;1254;96603;-73
2023/12/21 08:41:37;;;;;;;21.30;8.10;;;;;;;1.42;72.51;97645.48;105591;1254;109331;-73
2023/12/21 08:44:06;;;;;;;20.60;8.20;;;;;;;1.43;72.35;97631.77;105600;1256;96987;-75
2023/12/21 08:46:34;;;;;;;18.80;8.00;;;;;;;1.44;72.03;97633.08;105449;1257;107924;-73
2023/12/21 08:49:02;;;;;;;19.60;7.60;;;;;;;1.47;71.99;97639.02;105580;1257;97291;-73
2023/12/21 08:51:30;;;;;;;21.10;8.50;;;;;;;1.50;72.04;97631.55;105468;1257;97599;-73
2023/12/21 08:53:57;;;;;;;19.30;8.00;;;;;;;1.54;72.17;97637.10;105693;1254;109954;-74
2023/12/21 08:56:25;;;;;;;20.20;8.40;;;;;;;1.58;72.14;97637.38;105665;1258;96652;-72
2023/12/21 08:58:56;;;;;;;19.10;7.30;;;;;;;1.62;72.10;97628.72;105686;1257;106940;-74
2023/12/21 09:01:24;;;;;;;21.30;8.40;;;;;;;1.62;72.41;97629.26;105378;1257;96680;-74
2023/12/21 09:03:52;;;;;;;24.70;9.40;;;;;;;1.63;72.16;97632.52;105424;1253;96549;-71
2023/12/21 09:06:20;;;;;;;20.20;8.50;;;;;;;1.65;72.45;97631.00;105515;1256;109493;-72
2023/12/21 09:08:48;;;;;;;19.20;8.20;;;;;;;1.66;72.09;97618.92;105592;1257;96575;-71
2023/12/21 09:11:20;;;;;;;22.60;8.10;;;;;;;1.67;72.23;97614.65;105143;1266;107764;-76
2023/12/21 09:13:47;;;;;;;19.50;8.20;;;;;;;1.66;72.48;97617.83;105251;1256;96596;-73
2023/12/21 09:16:17;;;;;;;19.90;8.20;;;;;;;1.66;72.14;97611.38;105652;1256;96627;-72
2023/12/21 09:18:45;;;;;;;19.80;7.50;;;;;;;1.68;72.31;97601.83;105377;1256;109614;-74
2023/12/21 09:21:13;;;;;;;20.80;8.10;;;;;;;1.67;72.44;97593.83;105639;1257;96605;-72
2023/12/21 09:23:41;;;;;;;21.50;8.40;;;;;;;1.68;72.54;97589.74;105451;1256;107400;-71
2023/12/21 09:26:10;;;;;;;19.70;8.20;;;;;;;1.68;72.28;97586.42;105394;1254;96696;-71
2023/12/21 09:28:39;;;;;;;18.40;6.90;;;;;;;1.70;72.09;97584.08;105373;1257;97522;-73
2023/12/21 09:31:08;;;;;;;19.40;7.50;;;;;;;1.73;72.56;97575.48;105469;1251;109795;-73
2023/12/21 09:33:38;;;;;;;19.80;8.20;;;;;;;1.78;72.49;97568.35;105314;1257;97452;-74
2023/12/21 09:36:09;;;;;;;19.70;7.60;;;;;;;1.81;72.42;97562.98;105539;1265;107048;-71
2023/12/21 09:38:37;;;;;;;18.60;7.90;;;;;;;1.83;72.34;97562.34;105421;1258;96615;-73
2023/12/21 09:41:07;;;;;;;21.20;9.10;;;;;;;1.86;72.70;97561.05;105601;1256;96779;-73
2023/12/21 09:43:40;;;;;;;21.00;8.70;;;;;;;1.90;72.38;97556.65;105582;1251;110449;-72
2023/12/21 09:46:09;;;;;;;15.20;6.90;;;;;;;1.94;72.43;97542.08;105412;1254;96620;-73
2023/12/21 09:48:38;;;;;;;19.00;7.80;;;;;;;1.91;72.59;97534.52;108075;1253;106830;-72
2023/12/21 09:51:09;;;;;;;20.90;8.90;;;;;;;1.91;72.81;97527.73;105623;1256;96622;-75
2023/12/21 09:53:39;;;;;;;20.30;7.80;;;;;;;1.92;72.66;97517.71;106579;1253;98144;-73
2023/12/21 09:56:08;;;;;;;18.20;7.30;;;;;;;1.95;72.74;97505.80;105803;1265;111571;-72
2023/12/21 09:58:36;;;;;;;17.50;7.40;;;;;;;1.98;72.37;97500.07;105812;1253;96606;-73
2023/12/21 10:01:04;;;;;;;18.00;6.90;;;;;;;2.03;72.72;97493.40;105467;1257;108137;-72
2023/12/21 10:03:33;;;;;;;18.40;7.40;;;;;;;2.06;72.98;97493.22;105595;1258;96603;-71
2023/12/21 10:06:03;;;;;;;17.20;7.00;;;;;;;2.09;72.39;97488.16;105452;1257;96731;-71
2023/12/21 10:08:35;;;;;;;16.70;7.10;;;;;;;2.12;72.59;97486.03;105533;1254;109849;-73
2023/12/21 10:11:06;;;;;;;20.60;8.20;;;;;;;2.13;72.71;97484.23;105277;1251;96603;-73
2023/12/21 10:13:35;;;;;;;19.90;8.30;;;;;;;2.14;72.77;97481.53;105465;1256;107236;-73
2023/12/21 10:16:03;;;;;;;19.60;7.90;;;;;;;2.18;72.74;97468.16;105403;1256;96606;-73
2023/12/21 10:18:31;;;;;;;22.70;9.20;;;;;;;2.23;72.72;97459.97;105606;1256;96619;-72
2023/12/21 10:20:59;;;;;;;20.60;8.30;;;;;;;2.25;72.82;97454.09;105619;1264;109308;-72
2023/12/21 10:23:27;;;;;;;18.80;8.30;;;;;;;2.23;72.74;97440.73;105719;1254;96654;-72
2023/12/21 10:25:56;;;;;;;23.20;9.60;;;;;;;2.26;72.92;97437.96;105758;1257;107851;-71
2023/12/21 10:28:24;;;;;;;20.10;7.00;;;;;;;2.28;72.54;97430.81;105571;1257;96737;-71
2023/12/21 10:30:57;;;;;;;19.90;7.80;;;;;;;2.26;72.34;97420.96;105454;1260;96791;-72
2023/12/21 10:33:25;;;;;;;19.00;8.40;;;;;;;2.25;72.66;97404.54;105479;1257;110034;-71
2023/12/21 10:35:53;;;;;;;19.80;8.20;;;;;;;2.24;72.62;97401.31;105541;1254;97551;-71
2023/12/21 10:38:22;;;;;;;19.20;8.00;;;;;;;2.24;72.73;97405.90;105546;1256;106585;-74
2023/12/21 10:40:50;;;;;;;18.40;7.60;;;;;;;2.22;72.52;97395.67;105341;1256;96727;-73
2023/12/21 10:43:18;;;;;;;22.80;8.50;;;;;;;2.25;72.55;97382.55;105717;1253;98028;-73
2023/12/21 10:45:48;;;;;;;21.60;9.20;;;;;;;2.27;72.64;97373.13;105477;1257;109612;-72
2023/12/21 10:48:19;;;;;;;19.80;8.40;;;;;;;2.31;73.01;97375.88;105567;1256;96702;-74
2023/12/21 10:50:49;;;;;;;20.70;8.80;;;;;;;2.33;72.76;97365.58;105283;1266;107375;-72
2023/12/21 10:53:22;;;;;;;22.20;8.50;;;;;;;2.35;72.74;97358.77;105517;1256;96641;-72
2023/12/21 10:55:50;;;;;;;21.00;7.60;;;;;;;2.40;72.84;97351.13;105506;1254;96660;-73
2023/12/21 10:58:21;;;;;;;20.10;7.90;;;;;;;2.41;72.67;97336.89;105702;1253;109995;-74
2023/12/21 11:03:56;;;;;;;18.20;7.90;;;;;;;2.46;72.63;97317.61;102921;1285;650202;-72
2023/12/21 11:06:23;;;;;;;18.80;7.60;;;;;;;2.49;72.53;97312.54;104641;1266;94316;-72
2023/12/21 11:08:51;;;;;;;19.70;8.00;;;;;;;2.51;72.62;97305.40;104652;1266;94338;-73
2023/12/21 11:11:23;;;;;;;21.00;8.40;;;;;;;2.50;72.36;97308.06;104688;1267;107261;-73
2023/12/21 11:13:55;;;;;;;19.10;6.90;;;;;;;2.48;72.16;97298.99;104579;1267;96800;-75
2023/12/21 11:16:45;;;;;;;18.70;7.80;;;;;;;2.45;72.46;97299.18;104375;1265;140514;-73
2023/12/21 11:19:17;;;;;;;17.20;7.30;;;;;;;2.43;72.52;97296.19;105236;1267;94414;-73
2023/12/21 11:21:45;;;;;;;20.80;8.70;;;;;;;2.45;72.39;97291.14;104960;1266;94341;-74
2023/12/21 11:24:22;;;;;;;21.40;8.40;;;;;;;2.46;72.46;97280.41;105398;1258;105233;-72
2023/12/21 11:26:50;;;;;;;18.80;7.60;;;;;;;2.46;72.49;97276.33;105569;1257;95579;-73
2023/12/21 11:29:27;;;;;;;21.70;8.40;;;;;;;2.44;72.46;97252.52;105636;1256;107911;-73